Time;durP1;ratioP1;P1;durP2;ratioP2;P2;SDS_P1;SDS_P2;PMS_P1;PMS_P2;Temp;Humidity;BMP_temperature;BMP_pressure;BME280_temperature;BME280_humidity;BME280_pressure;Samples;Min_cycle;Max_cycle;Signal;HPM_P1;HPM_P2
2023/01/03 00:00:35;;;;;;;20.42;5.30;;;2.10;99.90;;;;;;5033698;28;20045;-28
2023/01/03 00:03:00;;;;;;;9.93;5.40;;;2.30;99.90;;;;;;5033857;28;20104;-28
2023/01/03 00:05:26;;;;;;;14.35;6.68;;;2.30;99.90;;;;;;5036812;28;20045;-28
2023/01/03 00:07:52;;;;;;;15.13;4.40;;;2.60;99.90;;;;;;5019326;28;20051;-28
2023/01/03 00:10:18;;;;;;;9.77;3.95;;;2.60;99.90;;;;;;5036731;28;20053;-28
2023/01/03 00:12:43;;;;;;;12.30;3.55;;;2.70;99.90;;;;;;5037178;28;20099;-28
2023/01/03 00:15:13;;;;;;;12.30;3.10;;;2.80;99.90;;;;;;5036232;28;20042;-28
2023/01/03 00:17:38;;;;;;;11.48;3.33;;;2.90;99.90;;;;;;5036568;28;20412;-28
2023/01/03 00:20:05;;;;;;;10.73;2.72;;;3.00;99.90;;;;;;5019093;28;20045;-28
2023/01/03 00:22:31;;;;;;;9.27;2.55;;;3.10;99.90;;;;;;5035850;28;20097;-28
2023/01/03 00:24:57;;;;;;;11.77;2.17;;;3.10;99.90;;;;;;5036394;28;20543;-28
2023/01/03 00:27:22;;;;;;;8.02;1.80;;;3.10;99.90;;;;;;5036044;28;20143;-28
2023/01/03 00:29:48;;;;;;;4.82;1.80;;;3.20;99.90;;;;;;5036875;28;20048;-28
2023/01/03 00:32:14;;;;;;;8.68;1.73;;;3.20;99.90;;;;;;5036293;28;20045;-28
2023/01/03 00:34:43;;;;;;;6.80;1.80;;;3.20;99.90;;;;;;5002192;28;20049;-28
2023/01/03 00:37:09;;;;;;;12.05;2.63;;;3.30;60.80;;;;;;5036108;28;20040;-28
2023/01/03 00:39:35;;;;;;;9.60;2.05;;;3.40;77.20;;;;;;5036137;28;20041;-28
2023/01/03 00:42:01;;;;;;;8.27;1.58;;;3.40;1.00;;;;;;5019022;28;20041;-28
2023/01/03 00:44:26;;;;;;;7.22;1.27;;;3.40;1.00;;;;;;5018632;28;20383;-28
2023/01/03 00:46:52;;;;;;;4.97;1.65;;;3.50;7.30;;;;;;5036015;28;20095;-28
2023/01/03 00:49:18;;;;;;;5.35;1.45;;;3.50;1.00;;;;;;5035953;28;20048;-28
2023/01/03 00:51:44;;;;;;;9.95;1.90;;;3.60;1.00;;;;;;5035885;28;20132;-28
2023/01/03 00:54:11;;;;;;;6.97;1.70;;;3.60;1.00;;;;;;5035884;28;20088;-28
2023/01/03 00:56:40;;;;;;;8.13;1.30;;;3.70;1.00;;;;;;5035814;28;20045;-28
2023/01/03 00:59:06;;;;;;;6.22;1.40;;;3.70;1.00;;;;;;5018143;28;20050;-28
2023/01/03 01:01:46;;;;;;;8.68;1.73;;;3.70;1.00;;;;;;5035449;28;20518;-28
2023/01/03 01:04:21;;;;;;;5.95;1.65;;;3.80;1.00;;;;;;5036020;28;20058;-28
2023/01/03 01:06:49;;;;;;;4.68;1.15;;;3.80;1.00;;;;;;5019051;28;20064;-28
2023/01/03 01:09:28;;;;;;;8.55;1.30;;;3.90;1.00;;;;;;5017880;28;20187;-28
2023/01/03 01:11:54;;;;;;;7.10;1.25;;;3.80;1.00;;;;;;5036738;28;20136;-28
2023/01/03 01:14:22;;;;;;;3.85;1.40;;;3.80;1.00;;;;;;5036180;28;20057;-28
2023/01/03 01:16:57;;;;;;;9.38;1.67;;;3.80;1.00;;;;;;5034857;28;20054;-28
2023/01/03 01:19:26;;;;;;;6.55;1.35;;;3.80;1.00;;;;;;5035400;28;20046;-28
2023/01/03 01:21:52;;;;;;;10.60;1.45;;;3.80;1.00;;;;;;5035161;28;20053;-28
2023/01/03 01:24:18;;;;;;;7.00;1.60;;;3.80;99.90;;;;;;5018716;28;20490;-28
2023/01/03 01:26:43;;;;;;;5.25;1.42;;;3.70;99.90;;;;;;5018313;28;20060;-28
2023/01/03 01:29:11;;;;;;;6.82;1.35;;;3.70;99.90;;;;;;5035194;28;20085;-28
2023/01/03 01:31:37;;;;;;;14.60;2.13;;;3.70;1.00;;;;;;5035460;28;20597;-28
2023/01/03 01:34:03;;;;;;;6.65;1.60;;;3.70;1.00;;;;;;5035122;28;20056;-28
2023/01/03 01:36:32;;;;;;;9.70;1.63;;;3.70;1.00;;;;;;5017357;28;20494;-28
2023/01/03 01:39:00;;;;;;;7.28;1.80;;;3.70;1.00;;;;;;5001323;28;20488;-29
2023/01/03 01:44:51;;;;;;;9.52;1.88;;;3.60;1.00;;;;;;5035480;28;20486;-28
2023/01/03 01:47:25;;;;;;;8.45;2.03;;;3.50;1.00;;;;;;5018295;28;20132;-28
2023/01/03 01:50:15;;;;;;;6.35;2.17;;;3.50;1.00;;;;;;5035174;28;20190;-28
2023/01/03 01:52:50;;;;;;;15.40;2.40;;;3.50;1.00;;;;;;5018163;28;20046;-28
2023/01/03 01:55:21;;;;;;;8.93;2.50;;;3.50;1.00;;;;;;5035312;28;20053;-28
2023/01/03 01:57:47;;;;;;;6.68;2.08;;;3.60;1.00;;;;;;5035291;28;20387;-28
2023/01/03 02:00:13;;;;;;;5.35;2.03;;;3.60;1.00;;;;;;5034598;28;20053;-28
2023/01/03 02:02:39;;;;;;;8.10;2.17;;;3.60;1.00;;;;;;5034685;28;20492;-28
2023/01/03 02:05:07;;;;;;;7.40;1.90;;;3.60;1.00;;;;;;5035148;28;20179;-28
2023/01/03 02:07:33;;;;;;;8.73;2.30;;;3.70;1.00;;;;;;5034458;28;20045;-28
2023/01/03 02:10:00;;;;;;;12.48;1.90;;;3.70;5.70;;;;;;5034503;28;20041;-28
2023/01/03 02:15:43;;;;;;;8.63;2.35;;;3.70;16.00;;;;;;5034198;28;20057;-28
2023/01/03 02:18:30;;;;;;;8.68;2.30;;;3.70;1.00;;;;;;5017287;28;20108;-28
2023/01/03 02:21:18;;;;;;;5.60;1.88;;;3.60;1.00;;;;;;5034276;28;20132;-28
2023/01/03 02:24:09;;;;;;;8.65;2.40;;;3.60;1.00;;;;;;5016779;28;20476;-28
2023/01/03 02:26:50;;;;;;;10.50;2.35;;;3.60;43.90;;;;;;5001983;28;20488;-28
2023/01/03 02:29:43;;;;;;;6.70;2.90;;;3.50;48.60;;;;;;5034123;28;20111;-28
2023/01/03 02:32:33;;;;;;;10.32;2.50;;;3.50;44.30;;;;;;5034185;28;20049;-28
2023/01/03 02:35:09;;;;;;;8.93;2.78;;;3.50;58.90;;;;;;5034076;28;20046;-28
2023/01/03 02:38:09;;;;;;;11.00;3.10;;;3.40;46.10;;;;;;5034065;28;20132;-28
2023/01/03 02:40:41;;;;;;;8.88;2.65;;;3.30;12.90;;;;;;5017422;28;20056;-28
2023/01/03 02:43:16;;;;;;;7.05;3.03;;;3.20;15.20;;;;;;5016603;28;20049;-28
2023/01/03 02:46:03;;;;;;;9.25;3.47;;;3.10;16.00;;;;;;5033943;28;20052;-28
2023/01/03 02:48:52;;;;;;;9.60;2.47;;;3.00;39.10;;;;;;5034163;28;20111;-28
2023/01/03 02:51:27;;;;;;;6.50;2.45;;;2.90;28.60;;;;;;5016159;28;20484;-28
2023/01/03 02:53:54;;;;;;;7.65;2.53;;;2.90;49.60;;;;;;5034433;28;20049;-28
2023/01/03 02:56:43;;;;;;;10.00;2.72;;;2.70;53.30;;;;;;5033374;28;20554;-28
2023/01/03 02:59:13;;;;;;;12.25;3.13;;;2.70;49.80;;;;;;5032960;28;20093;-28
2023/01/03 03:01:44;;;;;;;8.48;3.00;;;2.50;66.60;;;;;;5016697;28;20054;-28
2023/01/03 03:04:13;;;;;;;9.18;4.28;;;2.40;57.70;;;;;;5016612;28;20057;-28
2023/01/03 03:06:53;;;;;;;6.35;2.92;;;2.40;75.50;;;;;;4999864;28;20054;-28
2023/01/03 03:09:18;;;;;;;9.98;3.05;;;2.50;88.90;;;;;;5033666;28;20504;-28
2023/01/03 03:14:37;;;;;;;9.23;3.25;;;2.50;99.90;;;;;;5019184;28;20119;-28
2023/01/03 03:17:07;;;;;;;12.43;3.80;;;2.30;99.90;;;;;;5033204;28;20487;-28
2023/01/03 03:25:21;;;;;;;12.68;3.70;;;2.00;99.90;;;;;;5033495;28;20045;-28
2023/01/03 03:30:37;;;;;;;10.73;4.43;;;2.00;99.90;;;;;;5034031;28;20057;-28
2023/01/03 03:33:05;;;;;;;8.05;3.83;;;1.90;99.90;;;;;;5033339;28;20108;-28
2023/01/03 03:35:48;;;;;;;10.07;4.28;;;1.80;99.90;;;;;;5033318;28;20051;-28
2023/01/03 03:38:19;;;;;;;9.50;3.78;;;1.80;99.90;;;;;;5034804;28;20095;-28
2023/01/03 03:44:59;;;;;;;11.80;4.33;;;1.80;99.90;;;;;;5037241;28;20050;-28
2023/01/03 03:46:56;;;;;;;12.98;3.97;;;1.60;99.90;;;;;;5036807;28;20053;-28
2023/01/03 03:49:37;;;;;;;16.57;3.33;;;1.50;99.90;;;;;;5037159;28;20037;-28
2023/01/03 03:52:07;;;;;;;10.73;3.90;;;1.40;99.90;;;;;;5020460;28;20081;-28
2023/01/03 03:54:36;;;;;;;9.47;3.47;;;1.30;99.90;;;;;;5037824;28;20053;-28
2023/01/03 03:57:30;;;;;;;9.70;3.95;;;1.20;99.90;;;;;;5037131;28;20104;-28
2023/01/03 03:59:57;;;;;;;;;;;1.10;99.90;;;;;;5027659;28;20049;-28
2023/01/03 04:02:26;;;;;;;10.07;3.20;;;1.00;99.90;;;;;;5036841;28;19928;-28
2023/01/03 04:04:56;;;;;;;9.87;4.00;;;0.90;99.90;;;;;;5036822;28;20128;-28
2023/01/03 04:07:22;;;;;;;7.20;3.63;;;0.80;99.90;;;;;;5037618;28;20045;-28
2023/01/03 04:09:48;;;;;;;8.73;4.10;;;0.70;99.90;;;;;;5036727;28;20133;-28
2023/01/03 04:12:14;;;;;;;9.53;4.10;;;0.70;99.90;;;;;;5002914;28;20053;-28
2023/01/03 04:14:39;;;;;;;11.50;4.40;;;0.70;99.90;;;;;;5036630;28;20047;-28
2023/01/03 04:17:05;;;;;;;12.67;4.60;;;0.70;99.90;;;;;;5037316;28;20103;-28
2023/01/03 04:19:31;;;;;;;13.25;4.80;;;1.40;99.90;;;;;;5036527;28;20049;-28
2023/01/03 04:21:56;;;;;;;11.87;5.33;;;0.90;99.90;;;;;;5024070;28;20057;-28
2023/01/03 04:24:22;;;;;;;14.50;5.23;;;0.80;99.90;;;;;;5035519;28;20041;-28
2023/01/03 04:26:48;;;;;;;10.60;5.03;;;0.90;99.90;;;;;;5036520;28;20042;-28
2023/01/03 04:29:14;;;;;;;16.20;5.80;;;0.90;99.90;;;;;;5036891;28;20041;-28
2023/01/03 04:31:40;;;;;;;16.05;6.00;;;1.00;99.90;;;;;;5036303;28;20109;-28
2023/01/03 04:34:06;;;;;;;14.43;5.33;;;1.00;99.90;;;;;;5037133;28;20053;-28
2023/01/03 04:36:31;;;;;;;14.93;5.78;;;1.00;99.90;;;;;;5036153;28;20095;-28
2023/01/03 04:38:57;;;;;;;18.50;5.78;;;1.00;99.90;;;;;;5036212;28;20049;-28
2023/01/03 04:41:23;;;;;;;15.77;6.05;;;1.00;99.90;;;;;;5036253;28;20049;-28
2023/01/03 04:44:00;;;;;;;14.85;5.93;;;1.10;99.90;;;;;;5036124;28;20037;-28
2023/01/03 04:46:27;;;;;;;13.95;5.45;;;1.10;99.90;;;;;;5035608;28;20128;-28
2023/01/03 04:48:53;;;;;;;12.27;5.57;;;1.40;99.90;;;;;;5034870;28;20513;-28
2023/01/03 04:51:18;;;;;;;14.68;6.22;;;1.10;99.90;;;;;;5033872;28;20045;-28
2023/01/03 04:53:44;;;;;;;17.98;6.38;;;1.10;99.90;;;;;;5034977;28;20053;-28
2023/01/03 04:56:10;;;;;;;10.33;5.17;;;1.10;99.90;;;;;;5036361;28;20058;-28
2023/01/03 04:58:35;;;;;;;16.25;6.45;;;1.10;99.90;;;;;;5036409;28;20128;-28
2023/01/03 05:01:03;;;;;;;15.38;6.15;;;1.20;99.90;;;;;;5035784;28;20046;-28
2023/01/03 05:03:30;;;;;;;20.73;7.20;;;1.20;99.90;;;;;;5035796;28;20095;-28
2023/01/03 05:06:05;;;;;;;22.20;7.70;;;1.30;99.90;;;;;;5035065;28;20045;-28
2023/01/03 05:08:30;;;;;;;18.15;7.95;;;1.40;99.90;;;;;;5036006;28;20049;-28
2023/01/03 05:10:56;;;;;;;20.08;9.20;;;1.50;99.90;;;;;;5036182;28;20475;-28
2023/01/03 05:13:22;;;;;;;15.95;8.10;;;1.50;99.90;;;;;;5035598;28;20096;-28
2023/01/03 05:15:48;;;;;;;18.70;9.52;;;1.60;99.90;;;;;;5035497;28;20042;-28
2023/01/03 05:18:14;;;;;;;25.97;9.20;;;1.70;99.90;;;;;;5035772;28;20049;-28
2023/01/03 05:26:14;;;;;;;22.58;9.07;;;1.70;99.90;;;;;;5035342;28;20050;-28
2023/01/03 05:28:43;;;;;;;19.70;9.68;;;1.70;99.90;;;;;;5035289;28;20057;-28
2023/01/03 05:31:09;;;;;;;23.00;11.43;;;1.70;99.90;;;;;;5035250;28;20053;-28
2023/01/03 05:33:39;;;;;;;24.15;11.07;;;1.70;99.90;;;;;;5034023;28;20045;-28
2023/01/03 05:36:06;;;;;;;24.48;11.93;;;1.80;99.90;;;;;;5033922;28;20084;-28
2023/01/03 05:38:32;;;;;;;21.20;11.00;;;1.70;99.90;;;;;;5035080;28;20045;-28
2023/01/03 05:40:58;;;;;;;29.77;11.70;;;1.70;99.90;;;;;;5035858;28;20068;-28
2023/01/03 05:43:24;;;;;;;27.50;13.85;;;1.80;99.90;;;;;;5035294;28;20053;-28
2023/01/03 05:45:52;;;;;;;26.38;12.88;;;1.80;99.90;;;;;;5035011;28;20052;-28
2023/01/03 05:48:20;;;;;;;29.70;14.27;;;1.90;99.90;;;;;;5034929;28;20087;-28
2023/01/03 05:50:48;;;;;;;35.83;15.05;;;1.90;99.90;;;;;;5035102;28;20504;-28
2023/01/03 05:53:14;;;;;;;30.90;14.38;;;1.90;99.90;;;;;;5035618;28;20053;-28
2023/01/03 05:55:40;;;;;;;33.35;15.73;;;2.00;99.90;;;;;;5034720;28;20053;-28
2023/01/03 05:58:07;;;;;;;31.10;14.55;;;2.00;99.90;;;;;;5033541;28;20396;-28
2023/01/03 06:00:33;;;;;;;32.70;16.08;;;2.20;99.90;;;;;;5035226;28;20088;-28
2023/01/03 06:02:59;;;;;;;32.85;14.68;;;2.00;99.90;;;;;;5034291;28;20480;-28
2023/01/03 06:05:25;;;;;;;33.10;15.60;;;2.00;99.90;;;;;;5033605;28;20038;-28
2023/01/03 06:07:51;;;;;;;33.40;15.93;;;2.90;99.90;;;;;;5033418;28;20054;-28
2023/01/03 06:10:17;;;;;;;36.00;15.38;;;2.00;99.90;;;;;;5034444;28;20574;-28
2023/01/03 06:12:42;;;;;;;32.70;15.70;;;2.00;99.90;;;;;;5034912;28;20046;-28
2023/01/03 06:15:08;;;;;;;32.67;16.55;;;2.10;99.90;;;;;;5033149;28;20089;-28
2023/01/03 06:20:18;;;;;;;37.33;16.15;;;2.10;99.90;;;;;;5019875;28;20052;-28
2023/01/03 06:22:46;;;;;;;41.25;16.67;;;2.00;99.90;;;;;;5032905;28;20049;-28
2023/01/03 06:25:12;;;;;;;40.03;17.65;;;2.00;99.90;;;;;;5034093;28;20049;-29
2023/01/03 06:27:38;;;;;;;37.63;19.58;;;1.90;99.90;;;;;;5032658;28;20119;-28
2023/01/03 06:30:05;;;;;;;44.42;20.00;;;1.90;99.90;;;;;;5034391;28;20455;-28
2023/01/03 06:32:30;;;;;;;41.13;19.08;;;1.90;99.90;;;;;;5034780;28;20089;-28
2023/01/03 06:34:56;;;;;;;43.22;20.00;;;1.90;99.90;;;;;;5034536;28;20476;-28
2023/01/03 06:37:22;;;;;;;45.33;19.85;;;1.80;99.90;;;;;;5033615;28;20091;-28
2023/01/03 06:39:47;;;;;;;40.90;19.80;;;1.70;99.90;;;;;;5032769;28;20057;-28
2023/01/03 06:53:17;;;;;;;46.13;20.13;;;1.80;99.90;;;;;;5033977;28;20482;-28
2023/01/03 06:55:44;;;;;;;48.10;22.13;;;1.50;99.90;;;;;;5033558;28;20056;-28
2023/01/03 06:58:11;;;;;;;46.58;22.35;;;1.30;99.90;;;;;;5032381;28;20049;-28
2023/01/03 07:00:41;;;;;;;44.95;20.75;;;1.30;99.90;;;;;;5033569;28;20399;-28
2023/01/03 07:03:07;;;;;;;54.33;22.05;;;1.30;99.90;;;;;;5033570;28;20081;-28
2023/01/03 07:05:32;;;;;;;55.40;23.20;;;1.20;99.90;;;;;;5034116;28;20507;-28
2023/01/03 07:07:58;;;;;;;50.30;23.50;;;1.20;99.90;;;;;;5033467;28;20049;-28
2023/01/03 07:10:24;;;;;;;51.80;24.53;;;1.20;99.90;;;;;;5033477;28;20053;-28
2023/01/03 07:15:34;;;;;;;68.43;27.00;;;1.10;99.90;;;;;;5033060;28;20495;-28
2023/01/03 07:18:00;;;;;;;69.27;30.07;;;1.10;99.90;;;;;;5033452;28;20056;-28
2023/01/03 07:20:26;;;;;;;71.67;31.37;;;1.20;99.90;;;;;;5033467;28;20132;-28
2023/01/03 07:22:52;;;;;;;65.70;30.50;;;1.20;99.90;;;;;;5031888;28;20103;-28
2023/01/03 07:25:18;;;;;;;61.53;29.13;;;1.30;99.90;;;;;;5033351;28;20058;-29
2023/01/03 07:27:43;;;;;;;67.00;29.67;;;1.50;99.90;;;;;;5033362;28;20053;-28
2023/01/03 07:30:10;;;;;;;66.33;28.50;;;1.20;99.90;;;;;;5032137;28;20318;-28
2023/01/03 07:32:35;;;;;;;63.70;28.63;;;1.20;99.90;;;;;;5033268;28;20111;-28
2023/01/03 07:35:01;;;;;;;67.00;29.40;;;1.10;99.90;;;;;;5032898;28;20049;-28
2023/01/03 07:37:27;;;;;;;73.17;29.47;;;1.00;99.90;;;;;;5033247;28;20053;-28
2023/01/03 07:39:52;;;;;;;61.17;28.00;;;1.30;99.90;;;;;;5032105;28;20053;-28
2023/01/03 07:45:03;;;;;;;67.13;28.73;;;0.90;99.90;;;;;;5033014;28;20072;-28
2023/01/03 07:47:29;;;;;;;68.50;29.83;;;0.80;99.90;;;;;;5033263;28;20124;-28
2023/01/03 07:49:54;;;;;;;67.70;29.60;;;1.00;99.90;;;;;;5033107;28;20139;-28
2023/01/03 07:52:20;;;;;;;72.53;31.83;;;0.90;99.90;;;;;;5015804;28;20512;-28
2023/01/03 07:54:46;;;;;;;71.83;30.43;;;1.20;99.90;;;;;;5033417;28;20046;-28
2023/01/03 07:57:13;;;;;;;69.97;32.37;;;0.90;99.90;;;;;;5031836;28;20107;-28
2023/01/03 07:59:39;;;;;;;73.87;31.03;;;0.90;99.90;;;;;;5032436;28;20057;-28
2023/01/03 08:02:05;;;;;;;60.07;29.27;;;1.00;99.90;;;;;;5031884;28;20060;-28
2023/01/03 08:04:30;;;;;;;69.73;29.67;;;1.40;99.90;;;;;;5033065;28;20060;-28
2023/01/03 08:06:57;;;;;;;69.20;29.87;;;1.00;99.90;;;;;;5033346;28;20080;-28
2023/01/03 08:14:53;;;;;;;55.70;24.90;;;0.80;99.90;;;;;;5033334;28;20127;-28
2023/01/03 08:17:19;;;;;;;66.70;27.10;;;0.70;99.90;;;;;;5032977;28;20475;-28
2023/01/03 08:19:44;;;;;;;57.90;25.13;;;0.60;99.90;;;;;;5032043;28;20128;-28
2023/01/03 08:22:10;;;;;;;56.90;26.03;;;0.60;99.90;;;;;;5032505;28;20053;-28
2023/01/03 08:24:36;;;;;;;59.53;25.37;;;0.50;99.90;;;;;;5034044;28;20099;-28
2023/01/03 08:27:03;;;;;;;58.00;24.93;;;0.40;99.90;;;;;;5019401;28;20046;-28
2023/01/03 08:29:29;;;;;;;56.13;23.00;;;0.50;99.90;;;;;;5036461;28;20120;-28
2023/01/03 08:31:56;;;;;;;55.37;24.27;;;0.40;99.90;;;;;;5018675;28;20559;-28
2023/01/03 08:34:25;;;;;;;57.70;23.57;;;0.40;99.90;;;;;;5018736;28;20446;-28
2023/01/03 08:36:56;;;;;;;51.37;24.17;;;0.40;99.90;;;;;;5002304;28;20124;-28
2023/01/03 08:39:26;;;;;;;55.33;24.93;;;0.40;99.90;;;;;;5018686;28;20482;-28
2023/01/03 08:41:59;;;;;;;57.33;24.07;;;0.40;99.90;;;;;;5036861;28;20053;-28
2023/01/03 08:44:25;;;;;;;60.08;24.30;;;0.50;99.90;;;;;;5036202;28;20049;-28
2023/01/03 08:46:54;;;;;;;53.93;23.17;;;0.50;99.90;;;;;;5036043;28;20132;-28
2023/01/03 08:49:20;;;;;;;54.67;22.92;;;0.50;99.90;;;;;;5002554;28;20064;-28
2023/01/03 08:51:46;;;;;;;53.77;24.33;;;0.60;99.90;;;;;;5035964;28;20056;-28
2023/01/03 08:54:12;;;;;;;58.27;24.30;;;0.70;99.90;;;;;;5018499;28;20554;-28
2023/01/03 08:56:38;;;;;;;57.07;25.63;;;0.90;99.90;;;;;;5035831;28;20050;-28
2023/01/03 08:59:05;;;;;;;54.17;24.67;;;0.80;99.90;;;;;;5018406;28;20045;-28
2023/01/03 09:01:31;;;;;;;54.05;25.60;;;0.90;99.90;;;;;;5035841;28;20045;-28
2023/01/03 09:03:56;;;;;;;49.60;25.45;;;1.00;99.90;;;;;;5035780;28;20111;-28
2023/01/03 09:06:22;;;;;;;50.97;24.45;;;1.00;99.90;;;;;;5036259;28;20464;-28
2023/01/03 09:08:48;;;;;;;51.22;23.85;;;1.00;99.90;;;;;;5018041;28;20057;-28
2023/01/03 09:11:13;;;;;;;57.50;25.20;;;1.20;99.90;;;;;;5036170;28;20041;-28
2023/01/03 09:13:40;;;;;;;52.10;26.10;;;1.30;99.90;;;;;;5002365;28;20053;-28
2023/01/03 09:16:09;;;;;;;55.67;26.02;;;1.30;99.90;;;;;;5018781;28;20120;-28
2023/01/03 09:18:36;;;;;;;61.40;28.63;;;1.30;99.90;;;;;;5036351;28;20415;-28
2023/01/03 09:21:03;;;;;;;50.47;26.52;;;1.40;99.90;;;;;;5035189;28;20546;-28
2023/01/03 09:23:30;;;;;;;48.50;28.13;;;1.40;99.90;;;;;;5035468;28;20057;-28
2023/01/03 09:25:55;;;;;;;45.43;24.73;;;1.50;99.90;;;;;;5018042;28;20082;-28
2023/01/03 09:28:21;;;;;;;45.63;25.20;;;1.60;99.90;;;;;;5017940;28;20045;-28
2023/01/03 09:30:47;;;;;;;47.55;28.20;;;1.50;99.90;;;;;;5002371;28;20104;-28
2023/01/03 09:33:13;;;;;;;46.75;26.20;;;1.50;99.90;;;;;;5035763;28;20133;-28
2023/01/03 09:35:39;;;;;;;55.77;29.50;;;1.40;99.90;;;;;;5034373;28;20172;-28
2023/01/03 09:38:05;;;;;;;65.27;26.33;;;1.40;99.90;;;;;;5035466;28;20049;-28
2023/01/03 09:40:35;;;;;;;90.50;30.73;;;1.60;99.90;;;;;;5017444;28;20085;-28
2023/01/03 09:43:12;;;;;;;73.33;29.10;;;1.40;99.90;;;;;;5035851;28;20049;-28
2023/01/03 09:45:42;;;;;;;91.10;31.77;;;1.40;99.90;;;;;;5034671;28;20426;-28
2023/01/03 09:48:13;;;;;;;130.25;32.47;;;1.40;99.90;;;;;;5034887;28;20050;-28
2023/01/03 09:50:41;;;;;;;116.80;31.52;;;1.40;99.90;;;;;;5035500;28;20399;-28
2023/01/03 10:05:58;;;;;;;99.80;26.75;;;1.90;99.90;;;;;;5017123;28;20059;-29
2023/01/03 10:08:33;;;;;;;152.30;29.40;;;1.90;99.90;;;;;;5034548;28;20180;-29
2023/01/03 10:11:08;;;;;;;225.50;33.60;;;1.80;99.90;;;;;;5034803;28;20083;-29
2023/01/03 10:13:39;;;;;;;293.58;37.95;;;1.90;99.90;;;;;;5035350;28;20038;-29
2023/01/03 10:16:16;;;;;;;302.67;40.47;;;1.90;99.90;;;;;;5016847;28;20124;-29
2023/01/03 10:19:01;;;;;;;246.60;35.17;;;1.90;99.90;;;;;;5034387;28;20075;-29
2023/01/03 10:21:52;;;;;;;250.30;35.72;;;2.00;99.90;;;;;;5034723;28;20068;-29
2023/01/03 10:24:23;;;;;;;212.98;33.28;;;2.10;99.90;;;;;;5034271;28;20120;-29
2023/01/03 10:26:54;;;;;;;203.60;35.30;;;2.10;99.90;;;;;;5000860;28;20484;-29
2023/01/03 10:29:20;;;;;;;242.20;36.80;;;2.10;99.90;;;;;;5034307;28;20092;-29
2023/01/03 10:32:23;;;;;;;137.43;30.15;;;2.20;99.90;;;;;;5017594;28;20049;-29
2023/01/03 10:35:21;;;;;;;171.68;33.38;;;2.20;99.90;;;;;;5016644;28;20487;-29
2023/01/03 10:37:50;;;;;;;237.88;40.17;;;2.30;99.90;;;;;;5014528;28;20061;-29
2023/01/03 10:40:16;;;;;;;193.68;40.22;;;2.50;99.90;;;;;;5034053;28;20049;-29
2023/01/03 10:42:43;;;;;;;203.32;36.55;;;2.50;99.90;;;;;;5000206;28;20510;-29
2023/01/03 10:45:17;;;;;;;205.98;37.58;;;2.60;99.90;;;;;;5034701;28;20045;-29
2023/01/03 10:47:43;;;;;;;239.48;38.97;;;2.60;99.90;;;;;;5033451;28;20057;-29
2023/01/03 10:50:36;;;;;;;217.38;37.63;;;2.60;99.90;;;;;;5034554;28;20392;-29
2023/01/03 10:53:07;;;;;;;269.35;41.42;;;2.70;99.90;;;;;;5029813;28;20053;-29
2023/01/03 10:55:34;;;;;;;271.45;41.15;;;2.70;99.90;;;;;;5033703;28;20084;-29
2023/01/03 10:58:16;;;;;;;297.08;42.65;;;2.80;99.90;;;;;;5016165;28;20045;-29
2023/01/03 11:00:42;;;;;;;264.13;42.55;;;2.80;99.90;;;;;;5034559;28;20053;-29
2023/01/03 11:03:23;;;;;;;253.23;42.88;;;2.90;99.90;;;;;;5034446;28;20187;-29
2023/01/03 11:06:01;;;;;;;233.75;39.60;;;3.00;99.90;;;;;;5016823;28;20050;-29
2023/01/03 11:08:58;;;;;;;201.98;37.60;;;3.10;99.90;;;;;;5016040;28;20053;-29
2023/01/03 11:11:35;;;;;;;271.27;44.55;;;3.10;99.90;;;;;;4998410;28;20415;-29
2023/01/03 11:14:13;;;;;;;270.75;46.72;;;3.20;99.90;;;;;;5015997;28;20053;-29
2023/01/03 11:16:39;;;;;;;248.75;46.28;;;3.30;99.90;;;;;;5016198;28;20092;-29
2023/01/03 11:19:05;;;;;;;191.55;43.03;;;3.40;99.90;;;;;;5016110;28;20038;-29
2023/01/03 11:21:44;;;;;;;220.95;47.97;;;4.10;99.90;;;;;;5001446;28;20404;-29
2023/01/03 11:24:37;;;;;;;170.07;43.38;;;3.60;99.90;;;;;;5033543;28;20485;-29
2023/01/03 11:27:26;;;;;;;181.80;47.85;;;3.70;99.90;;;;;;5033768;28;20050;-29
2023/01/03 11:30:17;;;;;;;171.90;45.33;;;3.80;99.90;;;;;;5033424;28;20492;-29
2023/01/03 11:33:01;;;;;;;173.70;44.55;;;4.00;99.90;;;;;;5033367;28;20045;-29
2023/01/03 11:35:45;;;;;;;182.88;48.13;;;4.10;99.90;;;;;;5016124;28;20049;-29
2023/01/03 11:38:29;;;;;;;165.55;48.05;;;4.10;99.90;;;;;;5033917;28;20046;-29
2023/01/03 11:41:20;;;;;;;148.00;45.72;;;4.30;99.90;;;;;;5033327;28;20049;-29
2023/01/03 11:44:21;;;;;;;154.32;46.03;;;4.30;99.90;;;;;;5016193;28;20115;-29
2023/01/03 11:47:06;;;;;;;147.02;45.22;;;4.40;99.90;;;;;;5032670;28;20056;-29
2023/01/03 11:49:50;;;;;;;139.82;46.35;;;4.40;99.90;;;;;;4999567;28;20492;-29
2023/01/03 11:52:27;;;;;;;126.70;42.05;;;4.40;99.90;;;;;;5032330;28;20045;-29
2023/01/03 11:55:13;;;;;;;130.55;43.60;;;4.40;99.90;;;;;;5032949;28;20495;-29
2023/01/03 11:58:06;;;;;;;138.00;44.70;;;4.40;99.90;;;;;;5032225;28;20069;-29
2023/01/03 12:00:32;;;;;;;;;;;4.50;99.90;;;;;;5036166;28;20134;-29
2023/01/03 12:03:06;;;;;;;132.20;43.45;;;4.50;99.90;;;;;;5036894;28;19968;-29
2023/01/03 12:05:47;;;;;;;139.20;46.67;;;4.60;99.90;;;;;;5019361;28;20046;-29
2023/01/03 12:08:30;;;;;;;133.80;46.65;;;4.60;99.90;;;;;;5019074;28;20111;-29
2023/01/03 12:11:11;;;;;;;136.80;45.50;;;4.70;99.90;;;;;;5020144;28;20058;-29
2023/01/03 12:14:19;;;;;;;130.20;46.13;;;4.80;99.90;;;;;;5019033;28;20061;-29
2023/01/03 12:16:59;;;;;;;133.77;46.33;;;4.90;99.90;;;;;;5028289;28;20059;-29
2023/01/03 12:19:28;;;;;;;144.40;50.53;;;4.90;99.90;;;;;;5037206;28;20049;-29
2023/01/03 12:22:23;;;;;;;126.55;50.88;;;5.00;99.90;;;;;;5036000;28;20060;-29
2023/01/03 12:25:07;;;;;;;133.77;48.25;;;5.10;99.90;;;;;;5026891;28;20480;-29
2023/01/03 12:27:42;;;;;;;127.45;49.13;;;5.20;99.90;;;;;;5037071;28;20045;-29
2023/01/03 12:30:45;;;;;;;125.28;48.95;;;5.20;99.90;;;;;;5037027;28;20049;-29
2023/01/03 12:33:23;;;;;;;128.00;46.97;;;5.30;99.90;;;;;;5018995;28;20107;-29
2023/01/03 12:36:06;;;;;;;129.68;49.20;;;5.30;99.90;;;;;;5018816;28;20064;-29
2023/01/03 12:38:37;;;;;;;127.50;47.95;;;5.40;99.90;;;;;;5036610;28;20057;-29
2023/01/03 12:41:22;;;;;;;116.68;44.22;;;5.40;99.90;;;;;;5002756;28;20061;-29
2023/01/03 12:43:57;;;;;;;131.68;51.50;;;5.50;99.90;;;;;;5036216;28;20551;-29
2023/01/03 12:46:33;;;;;;;109.72;45.95;;;5.60;99.90;;;;;;5019482;28;20057;-29
2023/01/03 12:49:01;;;;;;;104.65;46.13;;;5.60;99.90;;;;;;5036980;28;20041;-29
2023/01/03 12:51:27;;;;;;;96.70;45.08;;;5.70;99.90;;;;;;5036002;28;20041;-29
2023/01/03 12:54:05;;;;;;;107.47;48.53;;;5.70;99.90;;;;;;5001991;28;20099;-29
2023/01/03 12:57:07;;;;;;;105.63;44.15;;;5.70;99.90;;;;;;5019142;28;20164;-29
2023/01/03 12:59:49;;;;;;;97.63;45.70;;;5.80;99.90;;;;;;5035960;28;20049;-29
2023/01/03 13:02:48;;;;;;;108.03;46.83;;;5.80;99.90;;;;;;5001865;28;20056;-29
2023/01/03 13:05:46;;;;;;;98.32;45.03;;;5.90;99.90;;;;;;5001727;28;20049;-30
2023/01/03 13:08:42;;;;;;;94.32;41.05;;;5.90;99.90;;;;;;5018255;28;20081;-29
2023/01/03 13:11:20;;;;;;;99.80;40.85;;;5.90;99.90;;;;;;5035211;28;20050;-29
2023/01/03 13:13:53;;;;;;;75.22;37.65;;;6.00;99.90;;;;;;5018193;28;20553;-29
2023/01/03 13:16:43;;;;;;;78.60;38.03;;;6.00;99.90;;;;;;5036376;28;20068;-29
2023/01/03 13:19:21;;;;;;;78.93;35.22;;;6.00;99.90;;;;;;5036126;28;20053;-29
2023/01/03 13:21:50;;;;;;;81.07;33.97;;;6.10;99.90;;;;;;5017745;28;20064;-29
2023/01/03 13:24:44;;;;;;;66.03;33.20;;;6.10;99.90;;;;;;5018214;28;20053;-29
2023/01/03 13:27:19;;;;;;;56.13;27.73;;;6.20;99.90;;;;;;5002065;28;20507;-29
2023/01/03 13:29:48;;;;;;;61.67;30.92;;;6.20;99.90;;;;;;5034950;28;20049;-29
2023/01/03 13:32:27;;;;;;;52.00;28.90;;;6.20;99.90;;;;;;5035767;28;20361;-29
2023/01/03 13:34:53;;;;;;;56.53;29.77;;;6.30;99.90;;;;;;5036077;28;20103;-30
2023/01/03 13:37:41;;;;;;;51.05;27.17;;;6.30;99.90;;;;;;5018204;28;20434;-30
2023/01/03 13:40:28;;;;;;;44.35;26.30;;;6.30;99.90;;;;;;5035163;28;20041;-30
2023/01/03 13:43:06;;;;;;;46.35;26.05;;;6.40;99.90;;;;;;5001635;28;20092;-29
2023/01/03 13:45:46;;;;;;;48.58;24.75;;;6.40;99.90;;;;;;5035327;28;20050;-30
2023/01/03 13:48:22;;;;;;;47.08;25.75;;;6.40;99.90;;;;;;5017842;28;20099;-30
2023/01/03 13:51:23;;;;;;;43.08;26.05;;;6.40;99.90;;;;;;5034955;28;20557;-30
2023/01/03 13:53:56;;;;;;;42.95;23.83;;;6.40;99.90;;;;;;5034899;28;20091;-30
2023/01/03 13:56:26;;;;;;;;;;;6.40;99.90;;;;;;5035460;28;20049;-30
2023/01/03 13:59:00;;;;;;;45.95;23.33;;;6.40;99.90;;;;;;5017882;28;20028;-30
2023/01/03 14:01:44;;;;;;;43.05;25.10;;;6.40;99.90;;;;;;5035492;28;20126;-30
2023/01/03 14:04:25;;;;;;;38.95;22.42;;;6.50;99.90;;;;;;5017234;28;20045;-30
2023/01/03 14:07:02;;;;;;;40.92;24.30;;;6.40;99.90;;;;;;5017208;28;20097;-30
2023/01/03 14:09:50;;;;;;;41.13;23.00;;;6.50;99.90;;;;;;5017152;28;20068;-30
2023/01/03 14:12:48;;;;;;;40.92;23.10;;;6.50;99.90;;;;;;5017409;28;20061;-30